TimeCST,TemperatureF,Dew PointF,Humidity,Sea Level PressureIn,VisibilityMPH,Wind Direction,Wind SpeedMPH,Gust SpeedMPH,PrecipitationIn,Events,Conditions,WindDirDegrees,DateUTC
12:55 AM,34.2,32.4,93,30.25,10.0,Calm,Calm,-,N/A,,Clear,0,2013-01-20 06:55:00
1:55 AM,32.2,30.6,94,30.26,10.0,Calm,Calm,-,N/A,,Clear,0,2013-01-20 07:55:00
2:55 AM,32.5,31.1,94,30.26,10.0,Calm,Calm,-,N/A,,Clear,0,2013-01-20 08:55:00
3:55 AM,31.6,30.6,96,30.26,10.0,Calm,Calm,-,N/A,,Clear,0,2013-01-20 09:55:00
4:55 AM,30.7,29.8,96,30.26,10.0,Calm,Calm,-,N/A,,Clear,0,2013-01-20 10:55:00
5:55 AM,30.9,30.2,97,30.25,10.0,Calm,Calm,-,N/A,,Clear,0,2013-01-20 11:55:00
6:55 AM,28.8,27.5,95,30.26,10.0,Calm,Calm,-,N/A,,Clear,0,2013-01-20 12:55:00
7:55 AM,32.2,30.9,95,30.27,10.0,SE,3.5,-,N/A,,Clear,140,2013-01-20 13:55:00
8:55 AM,41.0,36.5,84,30.27,10.0,Calm,Calm,-,N/A,,Clear,0,2013-01-20 14:55:00
9:55 AM,48.4,38.1,68,30.27,10.0,NNW,3.5,-,N/A,,Clear,340,2013-01-20 15:55:00
10:55 AM,53.8,38.1,55,30.26,10.0,North,4.6,-,N/A,,Clear,350,2013-01-20 16:55:00
11:55 AM,55.6,37.9,52,30.23,10.0,North,3.5,-,N/A,,Clear,360,2013-01-20 17:55:00
12:28 PM,57.2,39.2,51,30.21,4.0,Calm,Calm,-,N/A,,Haze,0,2013-01-20 18:28:00
12:30 PM,57.2,39.2,51,30.21,5.0,NW,4.6,-,N/A,,Haze,320,2013-01-20 18:30:00
12:48 PM,57.2,39.2,51,30.20,4.0,Calm,Calm,-,N/A,,Haze,0,2013-01-20 18:48:00
12:50 PM,57.2,39.2,51,30.20,5.0,Calm,Calm,-,N/A,,Haze,0,2013-01-20 18:50:00
12:55 PM,58.1,38.7,48,30.20,6.0,Calm,Calm,-,N/A,,Haze,0,2013-01-20 18:55:00
1:17 PM,59.0,37.4,45,30.19,4.0,Calm,Calm,-,N/A,,Haze,0,2013-01-20 19:17:00
1:18 PM,59.0,39.2,48,30.19,3.0,Calm,Calm,-,N/A,,Haze,0,2013-01-20 19:18:00
1:19 PM,59.0,39.2,48,30.19,2.5,Calm,Calm,-,N/A,,Haze,0,2013-01-20 19:19:00
1:27 PM,60.8,39.2,45,30.19,3.0,Calm,Calm,-,N/A,,Haze,0,2013-01-20 19:27:00
1:29 PM,60.8,39.2,45,30.19,4.0,Calm,Calm,-,N/A,,Haze,0,2013-01-20 19:29:00
1:30 PM,60.8,39.2,45,30.19,5.0,Calm,Calm,-,N/A,,Haze,0,2013-01-20 19:30:00
1:55 PM,60.6,39.0,45,30.18,10.0,SW,3.5,-,N/A,,Clear,230,2013-01-20 19:55:00
2:55 PM,61.5,38.3,42,30.17,10.0,Calm,Calm,-,N/A,,Clear,0,2013-01-20 20:55:00
3:55 PM,61.9,38.3,42,30.16,10.0,Calm,Calm,-,N/A,,Clear,0,2013-01-20 21:55:00
4:55 PM,57.6,42.1,56,30.16,9.0,WSW,5.8,-,N/A,,Clear,250,2013-01-20 22:55:00
5:55 PM,50.0,41.9,74,30.16,10.0,Calm,Calm,-,N/A,,Clear,0,2013-01-20 23:55:00
6:55 PM,47.3,41.4,80,30.16,6.0,Calm,Calm,-,N/A,,Haze,0,2013-01-21 00:55:00
7:55 PM,43.2,40.8,91,30.17,10.0,Calm,Calm,-,N/A,,Clear,0,2013-01-21 01:55:00
8:34 PM,41.0,41.0,100,30.17,4.0,Calm,Calm,-,N/A,,Clear,0,2013-01-21 02:34:00
8:52 PM,41.0,39.2,93,30.17,5.0,Calm,Calm,-,N/A,,Clear,0,2013-01-21 02:52:00
8:55 PM,41.7,39.7,93,30.17,6.0,Calm,Calm,-,N/A,,Clear,0,2013-01-21 02:55:00
9:55 PM,39.2,38.5,97,30.17,5.0,Calm,Calm,-,N/A,,Clear,0,2013-01-21 03:55:00
10:05 PM,39.2,37.4,93,30.17,4.0,Calm,Calm,-,N/A,,Clear,0,2013-01-21 04:05:00
10:21 PM,39.2,39.2,100,30.17,5.0,Calm,Calm,-,N/A,,Clear,0,2013-01-21 04:21:00
10:55 PM,36.7,36.0,97,30.17,10.0,Calm,Calm,-,N/A,,Clear,0,2013-01-21 04:55:00
11:55 PM,35.2,34.5,97,30.16,10.0,Calm,Calm,-,N/A,,Clear,0,2013-01-21 05:55:00